Glasgow, Virginia
Current Conditions -  °F | °C
As of 8:54 AM on Thursday 29 Jan 2015 (Local Time) from KLYH Reporting Station
Clear Clear  
Wind Chill: 23°   Ceiling: Unl
Heat Index: 28°   Visibility: 10mi
Dew Point: 12°   Wind: 5mph
Humidity: 51%   Direction: 200°SSW
Pressure: 30.31"   Gusts: NA
Location:  37.63°N, 79.45°W
Report Text: KLYH 291354Z 20004KT 10SM CLR M02/M11 A3031 RMK AO2 SLP273 T10221111
Loading
Personal Weather Stations






























Interactive Weather Map New forecast layout! Learn more

10-Day Weather Forecast

Advertisements
Track Severe Weather on mobile